createdAt,value
2023-02-18T00:01:51.307Z,10.16
2023-02-18T00:04:18.902Z,10.30
2023-02-18T00:06:48.205Z,10.12
2023-02-18T00:09:15.766Z,10.22
2023-02-18T00:11:44.240Z,10.39
2023-02-18T00:14:14.070Z,10.31
2023-02-18T00:16:43.234Z,10.27
2023-02-18T00:19:13.525Z,10.22
2023-02-18T00:21:42.329Z,10.28
2023-02-18T00:24:15.683Z,10.33
2023-02-18T00:26:45.161Z,10.16
2023-02-18T00:29:13.131Z,10.19
2023-02-18T00:31:43.149Z,10.22
2023-02-18T00:34:11.917Z,10.10
2023-02-18T00:36:39.985Z,10.10
2023-02-18T00:39:09.741Z,10.12
2023-02-18T00:41:39.404Z,10.20
2023-02-18T00:44:07.525Z,10.22
2023-02-18T00:46:36.018Z,10.29
2023-02-18T00:49:04.616Z,10.13
2023-02-18T00:51:32.560Z,10.42
2023-02-18T00:54:00.826Z,10.36
2023-02-18T00:56:28.676Z,10.27
2023-02-18T00:58:57.763Z,10.45
2023-02-18T01:01:25.776Z,10.35
2023-02-18T01:03:53.647Z,10.62
2023-02-18T01:06:22.215Z,10.67
2023-02-18T01:08:50.368Z,10.75
2023-02-18T01:11:18.195Z,10.70
2023-02-18T01:13:46.711Z,10.67
2023-02-18T01:16:16.960Z,10.81
2023-02-18T01:18:47.486Z,10.71
2023-02-18T01:21:15.469Z,10.79
2023-02-18T01:23:44.484Z,10.88
2023-02-18T01:26:13.060Z,10.76
2023-02-18T01:28:42.331Z,10.87
2023-02-18T01:31:12.546Z,10.88
2023-02-18T01:33:44.707Z,10.75
2023-02-18T01:36:12.853Z,10.76
2023-02-18T01:38:40.961Z,10.60
2023-02-18T01:41:08.820Z,10.56
2023-02-18T01:43:39.376Z,10.48
2023-02-18T01:46:13.951Z,10.28
2023-02-18T01:48:47.365Z,10.42
2023-02-18T01:51:18.055Z,10.26
2023-02-18T01:53:51.905Z,10.27
2023-02-18T01:56:25.601Z,10.29
2023-02-18T01:58:56.439Z,10.27
2023-02-18T02:01:24.922Z,10.33
2023-02-18T02:03:54.232Z,10.46
2023-02-18T02:06:24.316Z,10.36
2023-02-18T02:08:56.326Z,10.19
2023-02-18T02:11:36.109Z,10.35
2023-02-18T02:14:17.405Z,10.32
2023-02-18T02:16:55.311Z,10.43
2023-02-18T02:19:47.881Z,10.50
2023-02-18T02:22:47.656Z,10.60
2023-02-18T02:25:32.955Z,10.63
2023-02-18T02:28:32.445Z,10.74
2023-02-18T02:31:25.654Z,10.72
2023-02-18T02:34:33.050Z,10.88
2023-02-18T02:37:09.944Z,10.93
2023-02-18T02:39:44.937Z,10.97
2023-02-18T02:42:21.673Z,10.88
2023-02-18T02:44:57.469Z,11.01
2023-02-18T02:47:33.680Z,11.07
2023-02-18T02:50:05.941Z,11.00
2023-02-18T02:52:39.738Z,10.82
2023-02-18T02:55:10.604Z,10.71
2023-02-18T02:57:50.636Z,10.71
2023-02-18T03:00:42.186Z,10.71
2023-02-18T03:03:24.323Z,10.74
2023-02-18T03:06:24.477Z,10.73
2023-02-18T03:09:05.216Z,10.85
2023-02-18T03:11:43.408Z,10.61
2023-02-18T03:14:23.412Z,10.66
2023-02-18T03:17:00.580Z,10.75
2023-02-18T03:19:33.635Z,10.78
2023-02-18T03:22:06.738Z,10.54
2023-02-18T03:24:40.234Z,10.62
2023-02-18T03:27:13.696Z,10.70
2023-02-18T03:29:43.407Z,10.66
2023-02-18T03:32:15.065Z,10.56
2023-02-18T03:34:48.803Z,10.30
2023-02-18T03:37:17.059Z,10.21
2023-02-18T03:39:51.146Z,10.34
2023-02-18T03:42:19.531Z,10.33
2023-02-18T03:44:47.514Z,10.27
2023-02-18T03:47:15.436Z,10.34
2023-02-18T03:49:43.696Z,10.19
2023-02-18T03:52:11.425Z,10.40
2023-02-18T03:54:39.965Z,10.49
2023-02-18T03:57:10.482Z,10.50
2023-02-18T03:59:38.721Z,10.50
2023-02-18T04:02:06.502Z,10.51
2023-02-18T04:04:35.225Z,10.47
2023-02-18T04:07:02.814Z,10.33
2023-02-18T04:09:30.908Z,10.52
2023-02-18T04:11:58.495Z,10.41
2023-02-18T04:14:27.792Z,10.46
2023-02-18T04:16:56.379Z,10.36
2023-02-18T04:19:24.039Z,10.27
2023-02-18T04:21:52.226Z,10.23
2023-02-18T04:24:20.320Z,10.40
2023-02-18T04:26:48.058Z,10.44
2023-02-18T04:29:15.632Z,10.13
2023-02-18T04:31:45.279Z,10.08
2023-02-18T04:34:12.932Z,10.17
2023-02-18T04:36:41.040Z,10.32
2023-02-18T04:39:08.630Z,10.39
2023-02-18T04:44:22.973Z,10.11
2023-02-18T04:46:51.920Z,10.13
2023-02-18T04:49:19.598Z,10.07
2023-02-18T04:51:47.859Z,10.11
2023-02-18T04:54:15.710Z,10.18
2023-02-18T04:56:44.541Z,10.11
2023-02-18T04:59:12.495Z,10.12
2023-02-18T05:01:40.329Z,9.95
2023-02-18T05:04:09.548Z,10.01
2023-02-18T05:06:39.846Z,10.07
2023-02-18T05:09:07.816Z,10.11
2023-02-18T05:11:36.202Z,10.09
2023-02-18T05:14:03.981Z,10.07
2023-02-18T05:16:31.898Z,10.21
2023-02-18T05:18:59.509Z,10.08
2023-02-18T05:21:29.227Z,10.08
2023-02-18T05:23:56.815Z,10.24
2023-02-18T05:26:24.875Z,9.95
2023-02-18T05:28:52.472Z,10.09
2023-02-18T05:31:20.436Z,10.07
2023-02-18T05:33:48.474Z,10.11
2023-02-18T05:36:16.396Z,10.11
2023-02-18T05:38:45.313Z,9.97
2023-02-18T05:41:13.500Z,10.14
2023-02-18T05:43:55.040Z,9.96
2023-02-18T05:46:23.499Z,10.06
2023-02-18T05:48:51.074Z,10.03
2023-02-18T05:51:19.215Z,10.00
2023-02-18T05:53:48.175Z,10.01
2023-02-18T05:56:16.112Z,10.03
2023-02-18T05:58:43.688Z,9.94
2023-02-18T06:01:11.681Z,9.75
2023-02-18T06:03:39.240Z,9.68
2023-02-18T06:06:08.558Z,9.95
2023-02-18T06:08:36.529Z,9.91
2023-02-18T06:11:05.983Z,9.95
2023-02-18T06:13:33.845Z,9.89
2023-02-18T06:16:01.770Z,9.85
2023-02-18T06:18:30.066Z,10.00
2023-02-18T06:20:57.697Z,10.02
2023-02-18T06:23:25.419Z,10.00
2023-02-18T06:25:53.208Z,10.10
2023-02-18T06:28:22.735Z,10.16
2023-02-18T06:30:50.708Z,10.13
2023-02-18T06:33:19.190Z,10.23
2023-02-18T06:35:54.931Z,10.24
2023-02-18T06:38:23.327Z,10.28
2023-02-18T06:40:50.953Z,10.08
2023-02-18T06:43:19.795Z,10.24
2023-02-18T06:45:48.733Z,10.16
2023-02-18T06:48:17.185Z,10.37
2023-02-18T06:50:45.193Z,10.36
2023-02-18T06:53:13.031Z,10.18
2023-02-18T06:55:41.765Z,10.40
2023-02-18T06:58:10.890Z,10.25
2023-02-18T07:00:38.793Z,10.30
2023-02-18T07:03:08.740Z,10.57
2023-02-18T07:05:36.335Z,10.32
2023-02-18T07:08:04.211Z,10.33
2023-02-18T07:10:31.778Z,10.45
2023-02-18T07:12:59.793Z,10.49
2023-02-18T07:15:27.988Z,10.37
2023-02-18T07:17:55.938Z,10.34
2023-02-18T07:20:25.864Z,10.63
2023-02-18T07:22:54.931Z,10.81
2023-02-18T07:25:23.458Z,10.77
2023-02-18T07:27:52.202Z,10.80
2023-02-18T07:30:20.303Z,10.74
2023-02-18T07:32:49.041Z,10.82
2023-02-18T07:35:17.431Z,10.90
2023-02-18T07:37:48.172Z,11.07
2023-02-18T07:40:18.624Z,11.20
2023-02-18T07:42:46.305Z,11.07
2023-02-18T07:45:14.357Z,10.98
2023-02-18T07:47:42.808Z,11.11
2023-02-18T07:50:11.689Z,11.33
2023-02-18T07:52:39.461Z,11.26
2023-02-18T07:55:09.562Z,11.47
2023-02-18T07:57:57.539Z,11.17
2023-02-18T08:00:25.628Z,11.53
2023-02-18T08:02:53.632Z,11.50
2023-02-18T08:05:21.492Z,11.44
2023-02-18T08:07:49.315Z,11.43
2023-02-18T08:10:18.300Z,11.41
2023-02-18T08:12:46.184Z,11.65
2023-02-18T08:15:14.266Z,11.22
2023-02-18T08:17:42.092Z,11.47
2023-02-18T08:20:10.606Z,11.56
2023-02-18T08:22:38.750Z,11.72
2023-02-18T08:25:07.273Z,11.68
2023-02-18T08:27:36.438Z,11.74
2023-02-18T08:30:04.568Z,11.44
2023-02-18T08:32:32.228Z,11.50
2023-02-18T08:34:59.916Z,11.47
2023-02-18T08:37:27.697Z,11.43
2023-02-18T08:39:55.487Z,11.60
2023-02-18T08:42:23.196Z,11.53
2023-02-18T08:44:52.516Z,11.30
2023-02-18T08:48:18.808Z,11.66
2023-02-18T08:50:08.197Z,11.81
2023-02-18T08:52:35.781Z,11.91
2023-02-18T08:55:05.669Z,12.08
2023-02-18T08:57:33.272Z,12.02
2023-02-18T09:00:02.725Z,12.34
2023-02-18T09:02:30.314Z,12.52
2023-02-18T09:04:57.956Z,12.53
2023-02-18T09:07:25.527Z,12.31
2023-02-18T09:09:53.655Z,12.30
2023-02-18T09:12:21.465Z,12.01
2023-02-18T09:14:49.612Z,12.05
2023-02-18T09:17:18.597Z,12.04
2023-02-18T09:19:47.091Z,12.26
2023-02-18T09:22:15.118Z,12.49
2023-02-18T09:24:43.474Z,12.61
2023-02-18T09:27:11.408Z,12.58
2023-02-18T09:29:40.983Z,12.82
2023-02-18T09:32:11.075Z,12.97
2023-02-18T09:34:40.346Z,13.44
2023-02-18T09:37:07.947Z,13.82
2023-02-18T09:39:35.805Z,13.57
2023-02-18T09:42:05.528Z,13.86
2023-02-18T09:44:36.159Z,14.14
2023-02-18T09:47:07.367Z,14.24
2023-02-18T09:49:38.705Z,14.43
2023-02-18T09:52:13.724Z,14.09
2023-02-18T09:54:42.199Z,14.38
2023-02-18T09:57:22.423Z,14.56
2023-02-18T09:59:57.449Z,14.67
2023-02-18T10:02:25.861Z,14.50
2023-02-18T10:04:54.479Z,15.25
2023-02-18T10:07:28.566Z,14.88
2023-02-18T10:09:58.575Z,14.86
2023-02-18T10:12:27.549Z,14.62
2023-02-18T10:14:57.202Z,14.72
2023-02-18T10:17:27.244Z,14.63
2023-02-18T10:19:57.277Z,14.94
2023-02-18T10:22:28.980Z,14.98
2023-02-18T10:24:59.476Z,15.26
2023-02-18T10:27:29.622Z,15.14
2023-02-18T10:30:02.737Z,15.49
2023-02-18T10:32:36.480Z,15.47
2023-02-18T10:35:16.771Z,15.27
2023-02-18T10:37:55.758Z,15.29
2023-02-18T10:40:32.008Z,15.26
2023-02-18T10:43:11.816Z,14.88
2023-02-18T10:45:46.853Z,14.44
2023-02-18T10:48:33.203Z,13.61
2023-02-18T10:51:08.151Z,14.14
2023-02-18T10:53:39.905Z,14.17
2023-02-18T10:56:09.672Z,14.08
2023-02-18T10:58:45.619Z,14.22
2023-02-18T11:01:18.071Z,14.02
2023-02-18T11:03:47.609Z,13.91
2023-02-18T11:06:23.888Z,13.68
2023-02-18T11:08:55.616Z,13.64
2023-02-18T11:11:26.944Z,13.92
2023-02-18T11:13:55.877Z,13.66
2023-02-18T11:16:25.955Z,13.70
2023-02-18T11:18:53.588Z,13.73
2023-02-18T11:21:27.634Z,13.66
2023-02-18T11:23:57.874Z,13.62
2023-02-18T11:26:31.469Z,13.68
2023-02-18T11:29:03.878Z,13.89
2023-02-18T11:31:41.994Z,14.00
2023-02-18T11:34:17.829Z,14.38
2023-02-18T11:36:46.608Z,14.78
2023-02-18T11:39:21.861Z,14.93
2023-02-18T11:41:57.711Z,15.06
2023-02-18T11:44:29.680Z,14.61
2023-02-18T11:47:00.314Z,14.47
2023-02-18T11:49:29.852Z,14.69
2023-02-18T11:52:07.053Z,14.61
2023-02-18T11:54:36.484Z,14.56
2023-02-18T11:57:07.407Z,14.32
2023-02-18T11:59:38.793Z,14.41
2023-02-18T12:02:27.195Z,14.43
2023-02-18T12:05:02.340Z,13.98
2023-02-18T12:07:35.495Z,13.88
2023-02-18T12:10:12.540Z,13.88
2023-02-18T12:12:47.217Z,13.91
2023-02-18T12:15:18.930Z,13.40
2023-02-18T12:18:03.057Z,13.80
2023-02-18T12:20:54.336Z,13.65
2023-02-18T12:23:29.388Z,13.96
2023-02-18T12:26:08.805Z,13.62
2023-02-18T12:28:53.021Z,13.71
2023-02-18T12:31:34.749Z,13.83
2023-02-18T12:34:26.165Z,13.85
2023-02-18T12:37:07.086Z,13.75
2023-02-18T12:39:50.784Z,13.85
2023-02-18T12:42:36.659Z,13.91
2023-02-18T12:45:29.134Z,13.73
2023-02-18T12:48:12.312Z,13.59
2023-02-18T12:50:56.890Z,13.79
2023-02-18T12:53:41.573Z,13.97
2023-02-18T12:56:34.332Z,13.91
2023-02-18T12:59:13.446Z,13.95
2023-02-18T13:01:52.235Z,14.09
2023-02-18T13:04:28.397Z,14.03
2023-02-18T13:07:35.151Z,14.24
2023-02-18T13:10:29.509Z,14.41
2023-02-18T13:13:05.560Z,14.57
2023-02-18T13:15:40.413Z,14.77
2023-02-18T13:18:14.280Z,14.95
2023-02-18T13:20:44.624Z,14.65
2023-02-18T13:23:20.176Z,14.43
2023-02-18T13:25:50.353Z,14.55
2023-02-18T13:28:25.520Z,14.64
2023-02-18T13:31:06.348Z,14.56
2023-02-18T13:33:42.690Z,14.56
2023-02-18T13:36:18.987Z,14.65
2023-02-18T13:38:57.278Z,14.72
2023-02-18T13:41:27.359Z,14.31
2023-02-18T13:43:55.032Z,13.80
2023-02-18T13:46:25.441Z,13.54
2023-02-18T13:48:55.689Z,13.51
2023-02-18T13:51:31.784Z,13.56
2023-02-18T13:54:04.644Z,13.37
2023-02-18T13:56:35.241Z,13.58
2023-02-18T13:59:09.286Z,13.62
2023-02-18T14:01:42.564Z,13.63
2023-02-18T14:04:49.406Z,13.68
2023-02-18T14:07:30.428Z,13.37
2023-02-18T14:09:59.330Z,13.46
2023-02-18T14:12:38.717Z,13.53
2023-02-18T14:15:43.929Z,13.28
2023-02-18T14:18:26.564Z,13.24
2023-02-18T14:21:05.653Z,13.23
2023-02-18T14:23:45.040Z,13.27
2023-02-18T14:26:25.294Z,13.34
2023-02-18T14:29:00.108Z,13.05
2023-02-18T14:31:42.716Z,13.21
2023-02-18T14:34:48.274Z,13.26
2023-02-18T14:37:50.903Z,13.23
2023-02-18T14:40:28.011Z,13.11
2023-02-18T14:43:06.134Z,13.37
2023-02-18T14:45:51.849Z,13.44
2023-02-18T14:48:36.796Z,13.46
2023-02-18T14:51:05.082Z,13.55
2023-02-18T14:53:46.303Z,13.57
2023-02-18T14:56:16.820Z,13.51
2023-02-18T14:58:47.492Z,13.22
2023-02-18T15:01:20.533Z,13.47
2023-02-18T15:03:49.440Z,13.72
2023-02-18T15:06:25.067Z,13.66
2023-02-18T15:08:54.258Z,13.76
2023-02-18T15:11:24.710Z,13.47
2023-02-18T15:13:52.972Z,13.53
2023-02-18T15:16:26.174Z,13.43
2023-02-18T15:18:58.054Z,13.55
2023-02-18T15:21:28.813Z,13.57
2023-02-18T15:24:06.175Z,13.69
2023-02-18T15:26:33.973Z,13.59
2023-02-18T15:29:04.856Z,13.82
2023-02-18T15:31:38.334Z,13.63
2023-02-18T15:34:28.083Z,13.72
2023-02-18T15:36:56.273Z,13.35
2023-02-18T15:39:26.222Z,13.32
2023-02-18T15:41:56.186Z,13.68
2023-02-18T15:44:26.653Z,13.51
2023-02-18T15:46:54.550Z,13.56
2023-02-18T15:49:25.314Z,13.44
2023-02-18T15:51:58.734Z,13.42
2023-02-18T15:54:28.807Z,13.32
2023-02-18T15:57:01.583Z,13.15
2023-02-18T15:59:33.869Z,13.04
2023-02-18T16:02:13.183Z,12.96
2023-02-18T16:04:42.926Z,12.86
2023-02-18T16:07:22.340Z,12.84
2023-02-18T16:09:52.399Z,12.93
2023-02-18T16:12:28.707Z,12.86
2023-02-18T16:14:58.397Z,12.86
2023-02-18T16:17:28.510Z,12.93
2023-02-18T16:20:04.855Z,12.60
2023-02-18T16:22:38.436Z,12.71
2023-02-18T16:25:18.482Z,12.57
2023-02-18T16:27:52.688Z,12.63
2023-02-18T16:30:23.526Z,12.55
2023-02-18T16:32:51.966Z,12.66
2023-02-18T16:35:21.150Z,12.57
2023-02-18T16:37:50.166Z,12.50
2023-02-18T16:40:30.205Z,12.43
2023-02-18T16:43:00.250Z,12.49
2023-02-18T16:45:35.472Z,12.37
2023-02-18T16:48:03.780Z,12.29
2023-02-18T16:50:34.253Z,12.42
2023-02-18T16:53:02.048Z,12.01
2023-02-18T16:55:31.886Z,12.10
2023-02-18T16:57:59.589Z,11.92
2023-02-18T17:00:28.015Z,12.11
2023-02-18T17:02:58.621Z,12.17
2023-02-18T17:05:28.522Z,12.21
2023-02-18T17:07:56.413Z,12.03
2023-02-18T17:10:24.785Z,12.18
2023-02-18T17:12:53.728Z,12.23
2023-02-18T17:15:31.042Z,12.32
2023-02-18T17:17:59.616Z,12.12
2023-02-18T17:20:28.673Z,12.18
2023-02-18T17:22:56.860Z,12.16
2023-02-18T17:25:32.311Z,12.21
2023-02-18T17:28:02.227Z,12.03
2023-02-18T17:30:30.123Z,12.23
2023-02-18T17:33:01.754Z,12.15
2023-02-18T17:35:30.918Z,12.40
2023-02-18T17:37:58.570Z,12.38
2023-02-18T17:40:28.194Z,12.03
2023-02-18T17:42:56.834Z,11.99
2023-02-18T17:45:29.679Z,12.16
2023-02-18T17:47:57.890Z,12.11
2023-02-18T17:50:26.513Z,12.12
2023-02-18T17:52:55.297Z,12.22
2023-02-18T17:55:24.996Z,12.04
2023-02-18T17:57:53.474Z,12.06
2023-02-18T18:00:24.484Z,12.09
2023-02-18T18:02:53.769Z,11.92
2023-02-18T18:05:24.560Z,12.05
2023-02-18T18:07:52.571Z,12.06
2023-02-18T18:10:22.045Z,11.90
2023-02-18T18:12:50.466Z,12.00
2023-02-18T18:15:29.310Z,11.91
2023-02-18T18:17:59.396Z,11.89
2023-02-18T18:20:29.718Z,11.94
2023-02-18T18:22:59.411Z,11.98
2023-02-18T18:25:29.682Z,12.09
2023-02-18T18:27:57.759Z,12.04
2023-02-18T18:30:28.116Z,11.93
2023-02-18T18:32:56.628Z,12.05
2023-02-18T18:35:28.863Z,12.01
2023-02-18T18:37:57.509Z,11.96
2023-02-18T18:40:26.938Z,11.95
2023-02-18T18:42:55.312Z,11.87
2023-02-18T18:45:24.577Z,12.04
2023-02-18T18:47:53.885Z,11.93
2023-02-18T18:50:23.346Z,11.83
2023-02-18T18:52:53.919Z,11.78
2023-02-18T18:55:25.926Z,11.83
2023-02-18T18:57:55.011Z,11.98
2023-02-18T19:00:25.251Z,12.03
2023-02-18T19:02:53.295Z,11.79
2023-02-18T19:05:25.258Z,11.94
2023-02-18T19:07:54.829Z,11.91
2023-02-18T19:10:23.590Z,11.89
2023-02-18T19:12:51.488Z,11.91
2023-02-18T19:15:21.336Z,11.77
2023-02-18T19:17:51.702Z,11.72
2023-02-18T19:20:21.585Z,11.78
2023-02-18T19:22:49.292Z,11.63
2023-02-18T19:25:19.464Z,11.68
2023-02-18T19:27:48.163Z,11.74
2023-02-18T19:30:19.077Z,11.82
2023-02-18T19:32:47.263Z,11.90
2023-02-18T19:35:14.841Z,11.89
2023-02-18T19:37:43.050Z,11.90
2023-02-18T19:40:16.146Z,11.93
2023-02-18T19:42:45.476Z,11.91
2023-02-18T19:45:13.448Z,11.93
2023-02-18T19:47:41.457Z,11.85
2023-02-18T19:50:10.064Z,11.79
2023-02-18T19:52:38.016Z,11.64
2023-02-18T19:55:06.497Z,11.74
2023-02-18T19:57:35.077Z,11.74
2023-02-18T20:00:05.858Z,11.72
2023-02-18T20:02:41.276Z,11.81
2023-02-18T20:05:11.121Z,11.76
2023-02-18T20:07:41.717Z,11.82
2023-02-18T20:10:12.303Z,11.77
2023-02-18T20:12:40.619Z,11.76
2023-02-18T20:15:10.200Z,11.68
2023-02-18T20:17:38.949Z,11.75
2023-02-18T20:20:07.544Z,11.67
2023-02-18T20:22:35.444Z,11.63
2023-02-18T20:25:03.445Z,11.67
2023-02-18T20:27:31.335Z,11.61
2023-02-18T20:29:58.934Z,11.66
2023-02-18T20:32:28.753Z,11.53
2023-02-18T20:34:56.845Z,11.40
2023-02-18T20:37:24.904Z,11.52
2023-02-18T20:39:52.602Z,11.34
2023-02-18T20:42:20.696Z,11.46
2023-02-18T20:44:49.263Z,11.38
2023-02-18T20:47:17.238Z,11.39
2023-02-18T20:49:46.686Z,11.43
2023-02-18T20:52:14.597Z,11.38
2023-02-18T20:54:42.580Z,11.32
2023-02-18T20:57:10.157Z,11.35
2023-02-18T20:59:38.016Z,11.34
2023-02-18T21:02:05.886Z,11.11
2023-02-18T21:04:33.841Z,11.04
2023-02-18T21:07:02.768Z,11.09
2023-02-18T21:09:30.328Z,11.24
2023-02-18T21:11:57.982Z,11.23
2023-02-18T21:14:26.027Z,11.18
2023-02-18T21:16:53.588Z,11.20
2023-02-18T21:19:22.406Z,11.22
2023-02-18T21:21:49.998Z,11.22
2023-02-18T21:24:18.933Z,11.14
2023-02-18T21:26:46.558Z,11.32
2023-02-18T21:29:16.964Z,11.37
2023-02-18T21:31:44.811Z,11.29
2023-02-18T21:34:14.874Z,11.31
2023-02-18T21:36:43.661Z,11.25
2023-02-18T21:39:12.721Z,11.29
2023-02-18T21:41:41.668Z,11.35
2023-02-18T21:44:10.193Z,11.19
2023-02-18T21:46:38.071Z,11.21
2023-02-18T21:49:07.013Z,11.22
2023-02-18T21:51:55.596Z,11.43
2023-02-18T21:54:25.806Z,11.53
2023-02-18T21:56:55.780Z,11.35
2023-02-18T21:59:26.687Z,11.34
2023-02-18T22:01:54.943Z,11.41
2023-02-18T22:04:23.709Z,11.44
2023-02-18T22:06:51.272Z,11.41
2023-02-18T22:09:20.346Z,11.45
2023-02-18T22:11:47.941Z,11.27
2023-02-18T22:14:17.473Z,11.25
2023-02-18T22:16:45.624Z,11.27
2023-02-18T22:19:15.256Z,11.09
2023-02-18T22:21:43.535Z,11.06
2023-02-18T22:24:13.251Z,11.05
2023-02-18T22:26:41.215Z,11.00
2023-02-18T22:29:09.855Z,11.04
2023-02-18T22:31:39.885Z,11.00
2023-02-18T22:34:07.812Z,10.77
2023-02-18T22:36:35.510Z,11.04
2023-02-18T22:39:04.933Z,10.87
2023-02-18T22:41:33.849Z,10.98
2023-02-18T22:44:03.628Z,11.07
2023-02-18T22:46:32.612Z,11.03
2023-02-18T22:49:04.465Z,11.00
2023-02-18T22:51:34.208Z,11.03
2023-02-18T22:54:02.517Z,11.17
2023-02-18T22:56:30.918Z,11.19
2023-02-18T22:59:00.783Z,11.19
2023-02-18T23:01:30.109Z,11.22
2023-02-18T23:03:59.446Z,10.95
2023-02-18T23:06:29.140Z,11.10
2023-02-18T23:08:56.758Z,11.10
2023-02-18T23:11:25.404Z,11.19
2023-02-18T23:14:09.431Z,10.94
2023-02-18T23:16:57.852Z,11.19
2023-02-18T23:19:27.883Z,10.88
2023-02-18T23:21:57.053Z,10.94
2023-02-18T23:24:25.493Z,11.00
2023-02-18T23:26:53.443Z,10.94
2023-02-18T23:29:21.912Z,10.93
2023-02-18T23:31:49.666Z,10.90
2023-02-18T23:34:18.113Z,10.96
2023-02-18T23:36:47.293Z,11.01
2023-02-18T23:39:20.628Z,11.03
2023-02-18T23:41:48.551Z,10.92
2023-02-18T23:44:18.431Z,10.96
2023-02-18T23:46:46.588Z,10.91
2023-02-18T23:49:16.390Z,10.76
2023-02-18T23:51:44.999Z,10.73
2023-02-18T23:54:12.807Z,10.75
2023-02-18T23:56:42.747Z,10.92
2023-02-18T23:59:12.359Z,10.80
